Time;durP1;ratioP1;P1;durP2;ratioP2;P2;SDS_P1;SDS_P2;PMS_P1;PMS_P2;Temp;Humidity;BMP_temperature;BMP_pressure;BME280_temperature;BME280_humidity;BME280_pressure;Samples;Min_cycle;Max_cycle;Signal;HPM_P1;HPM_P2
2022/02/16 00:00:09;;;;;;;6.43;1.80;;;;;;;1.12;100.00;95946.28;5036417;28;20497;-78
2022/02/16 00:02:41;;;;;;;5.07;2.00;;;;;;;1.10;100.00;95950.72;5035481;28;20045;-78
2022/02/16 00:05:11;;;;;;;7.70;2.13;;;;;;;1.15;100.00;95951.25;5017740;28;21231;-78
2022/02/16 00:07:41;;;;;;;8.10;2.30;;;;;;;1.16;100.00;95943.38;5033935;28;20444;-77
2022/02/16 00:10:09;;;;;;;6.07;2.10;;;;;;;1.21;100.00;95940.47;5018059;28;20462;-78
2022/02/16 00:12:35;;;;;;;10.57;3.20;;;;;;;1.26;100.00;95932.34;5033863;28;20468;-77
2022/02/16 00:15:01;;;;;;;5.37;1.83;;;;;;;1.34;100.00;95930.03;5017237;28;20546;-80
2022/02/16 00:17:27;;;;;;;4.47;1.70;;;;;;;1.42;100.00;95927.72;5032694;28;20696;-78
2022/02/16 00:19:53;;;;;;;7.17;1.80;;;;;;;1.51;100.00;95918.44;5016014;28;20039;-78
2022/02/16 00:22:19;;;;;;;6.83;1.63;;;;;;;1.59;100.00;95921.31;5032308;28;20533;-78
2022/02/16 00:24:44;;;;;;;5.40;1.40;;;;;;;1.67;100.00;95921.56;5015389;28;20025;-78
2022/02/16 00:27:10;;;;;;;3.80;1.57;;;;;;;1.70;100.00;95910.16;5033899;28;20131;-78
2022/02/16 00:29:36;;;;;;;5.00;1.90;;;;;;;1.72;100.00;95913.47;5017553;28;20376;-78
2022/02/16 00:32:03;;;;;;;6.10;1.73;;;;;;;1.69;100.00;95900.75;5033772;28;20065;-78
2022/02/16 00:34:28;;;;;;;5.97;1.67;;;;;;;1.61;100.00;95902.13;5017511;28;20064;-78
2022/02/16 00:36:56;;;;;;;10.73;2.10;;;;;;;1.61;100.00;95904.72;5017273;28;20444;-78
2022/02/16 00:39:23;;;;;;;3.20;1.57;;;;;;;1.63;100.00;95899.41;5017877;28;20671;-78
2022/02/16 00:41:48;;;;;;;5.43;2.30;;;;;;;1.67;100.00;95897.44;5017721;28;20463;-78
2022/02/16 00:44:14;;;;;;;5.67;1.83;;;;;;;1.62;100.00;95900.38;5016974;28;20444;-78
2022/02/16 00:46:40;;;;;;;5.80;1.83;;;;;;;1.62;100.00;95896.00;5017872;28;20037;-78
2022/02/16 00:49:06;;;;;;;6.13;1.93;;;;;;;1.58;100.00;95902.34;5017264;28;20519;-77
2022/02/16 00:51:31;;;;;;;5.57;1.90;;;;;;;1.58;100.00;95902.34;5033533;28;20032;-77
2022/02/16 00:53:57;;;;;;;5.77;1.57;;;;;;;1.61;100.00;95901.28;5017716;28;20128;-78
2022/02/16 00:56:29;;;;;;;3.83;1.40;;;;;;;1.65;100.00;95900.16;5018385;28;20445;-79
2022/02/16 00:58:56;;;;;;;8.33;1.87;;;;;;;1.69;100.00;95898.16;5034027;28;20448;-78
2022/02/16 01:01:22;;;;;;;5.63;1.60;;;;;;;1.74;100.00;95896.84;5017779;28;20416;-78
2022/02/16 01:03:50;;;;;;;5.10;1.50;;;;;;;1.77;100.00;95895.81;5034917;28;20111;-78
2022/02/16 01:06:15;;;;;;;6.03;1.30;;;;;;;1.81;100.00;95892.03;5016227;28;21028;-77
2022/02/16 01:08:41;;;;;;;4.50;1.00;;;;;;;1.84;100.00;95892.63;5013199;28;20121;-75
2022/02/16 01:11:07;;;;;;;2.67;1.00;;;;;;;1.82;100.00;95889.34;5014329;28;20030;-77
2022/02/16 01:13:32;;;;;;;4.70;1.27;;;;;;;1.82;100.00;95889.34;5013511;28;20072;-76
2022/02/16 01:15:59;;;;;;;5.47;1.40;;;;;;;1.80;100.00;95887.81;5013098;28;20503;-77
2022/02/16 01:18:26;;;;;;;3.50;1.27;;;;;;;1.77;100.00;95886.25;5013336;28;20425;-78
2022/02/16 01:20:55;;;;;;;3.83;1.23;;;;;;;1.74;100.00;95880.47;5013885;28;20456;-77
2022/02/16 01:23:20;;;;;;;3.87;1.40;;;;;;;1.73;100.00;95876.25;5013408;28;20435;-77
2022/02/16 01:25:48;;;;;;;3.17;1.53;;;;;;;1.67;100.00;95872.31;5013803;28;20061;-79
2022/02/16 01:28:30;;;;;;;;;;;;;;;1.67;100.00;95863.72;5030385;28;20456;-76
2022/02/16 01:30:56;;;;;;;3.40;1.40;;;;;;;1.65;100.00;95864.69;5028790;28;20012;-76
2022/02/16 01:33:30;;;;;;;4.43;1.87;;;;;;;1.74;100.00;95859.75;5014157;28;20025;-77
2022/02/16 01:35:56;;;;;;;3.97;1.30;;;;;;;1.68;100.00;95867.97;5029182;28;21027;-78
2022/02/16 01:38:22;;;;;;;4.97;1.67;;;;;;;1.68;100.00;95865.38;5013195;28;20037;-77
2022/02/16 01:40:59;;;;;;;3.67;1.03;;;;;;;1.72;100.00;95862.47;5014986;28;20525;-77
2022/02/16 01:43:25;;;;;;;3.77;1.50;;;;;;;1.72;100.00;95864.22;5030979;28;20471;-77
2022/02/16 01:45:53;;;;;;;3.87;1.40;;;;;;;1.66;100.00;95857.72;5013057;28;20432;-77
2022/02/16 01:48:22;;;;;;;4.70;1.67;;;;;;;1.65;100.00;95862.09;5029676;28;20559;-77
2022/02/16 01:50:48;;;;;;;4.77;1.33;;;;;;;1.65;100.00;95856.91;5012190;28;20467;-77
2022/02/16 01:53:21;;;;;;;2.85;0.80;;;;;;;1.61;100.00;95854.63;5029549;28;20486;-77
2022/02/16 01:55:47;;;;;;;4.67;1.33;;;;;;;1.61;100.00;95847.72;5014287;28;20132;-78
2022/02/16 01:58:16;;;;;;;3.97;1.50;;;;;;;1.70;100.00;95842.78;5014018;28;20459;-77
2022/02/16 02:01:03;;;;;;;5.77;0.90;;;;;;;1.82;100.00;95836.69;5029276;28;21034;-77
2022/02/16 02:03:28;;;;;;;2.20;0.80;;;;;;;1.88;100.00;95831.03;5030218;28;20462;-76
2022/02/16 02:06:04;;;;;;;2.47;1.30;;;;;;;2.00;100.00;95829.25;5015343;28;20456;-78
2022/02/16 02:08:30;;;;;;;3.30;0.93;;;;;;;2.02;100.00;95823.03;5029261;28;20509;-78
2022/02/16 02:10:59;;;;;;;6.47;0.97;;;;;;;2.16;100.00;95815.97;5013187;28;20033;-78
2022/02/16 02:13:26;;;;;;;3.40;0.93;;;;;;;2.10;100.00;95819.84;5014421;28;20459;-77
2022/02/16 02:16:01;;;;;;;4.47;0.93;;;;;;;2.11;100.00;95811.09;5016258;28;20456;-81
2022/02/16 02:18:32;;;;;;;4.93;1.00;;;;;;;2.15;100.00;95816.88;5031295;28;20459;-77
2022/02/16 02:20:58;;;;;;;6.67;0.70;;;;;;;2.23;100.00;95810.16;5014462;28;20447;-77
2022/02/16 02:23:24;;;;;;;2.97;0.80;;;;;;;2.29;100.00;95814.06;5014040;28;20463;-78
2022/02/16 02:25:54;;;;;;;2.17;0.90;;;;;;;2.22;100.00;95811.13;5013873;28;20071;-77
2022/02/16 02:28:23;;;;;;;2.13;0.80;;;;;;;2.20;100.00;95801.81;5014034;28;20037;-77
2022/02/16 02:30:50;;;;;;;4.47;1.10;;;;;;;2.24;100.00;95805.81;5014032;28;20091;-77
2022/02/16 02:33:19;;;;;;;2.30;0.93;;;;;;;2.30;100.00;95800.16;5014678;28;20444;-77
2022/02/16 02:35:52;;;;;;;2.70;1.00;;;;;;;2.34;100.00;95793.75;5015489;28;20961;-77
2022/02/16 02:38:19;;;;;;;5.73;0.93;;;;;;;2.38;100.00;95779.59;5019410;28;20478;-78
2022/02/16 02:40:55;;;;;;;3.37;0.93;;;;;;;2.42;100.00;95778.44;5034188;28;20478;-77
2022/02/16 02:43:22;;;;;;;1.80;0.67;;;;;;;2.40;100.00;95769.13;5034682;28;20040;-78
2022/02/16 02:45:48;;;;;;;2.67;0.60;;;;;;;2.47;100.00;95760.72;5018156;28;20037;-77
2022/02/16 02:48:14;;;;;;;3.53;0.83;;;;;;;2.55;100.00;95771.34;5018241;28;20464;-78
2022/02/16 02:50:40;;;;;;;3.83;0.70;;;;;;;2.67;100.00;95766.94;5033872;28;20448;-77
2022/02/16 02:53:06;;;;;;;5.53;0.80;;;;;;;2.57;100.00;95755.63;5017247;28;20033;-77
2022/02/16 02:55:32;;;;;;;2.50;0.80;;;;;;;2.63;100.00;95757.75;5033980;28;20538;-78
2022/02/16 02:57:57;;;;;;;2.07;0.77;;;;;;;2.64;100.00;95753.38;5018608;28;20117;-78
2022/02/16 03:00:25;;;;;;;2.40;0.80;;;;;;;2.72;100.00;95748.41;5018293;28;20402;-77
2022/02/16 03:02:53;;;;;;;4.40;0.60;;;;;;;2.77;100.00;95751.44;5034519;28;20615;-77
2022/02/16 03:05:19;;;;;;;3.63;1.27;;;;;;;2.71;100.00;95746.72;5017567;28;20467;-77
2022/02/16 03:07:46;;;;;;;2.67;0.60;;;;;;;2.76;100.00;95744.59;5033690;28;20033;-78
2022/02/16 03:10:12;;;;;;;4.10;0.97;;;;;;;2.52;100.00;95745.63;5017914;28;20033;-77
2022/02/16 03:12:38;;;;;;;7.83;1.00;;;;;;;2.37;100.00;95744.22;5033524;28;20124;-77
2022/02/16 03:15:06;;;;;;;4.70;1.40;;;;;;;2.37;100.00;95739.03;5017603;28;20475;-78
2022/02/16 03:17:38;;;;;;;1.88;0.70;;;;;;;2.51;100.00;95736.16;5018479;28;20448;-77
2022/02/16 03:20:06;;;;;;;2.10;0.50;;;;;;;2.64;100.00;95738.63;5033872;28;20060;-78
2022/02/16 03:22:32;;;;;;;3.73;1.20;;;;;;;2.78;100.00;95727.13;5017416;28;20399;-77
2022/02/16 03:24:59;;;;;;;1.73;0.60;;;;;;;2.87;100.00;95720.38;5033827;28;20564;-78
2022/02/16 03:27:25;;;;;;;3.47;0.73;;;;;;;2.78;100.00;95717.56;5033939;28;20491;-78
2022/02/16 03:30:08;;;;;;;2.13;0.80;;;;;;;2.79;100.00;95718.41;5019482;28;20148;-77
2022/02/16 03:32:40;;;;;;;4.23;0.83;;;;;;;2.77;100.00;95725.47;5017820;28;20030;-78
2022/02/16 03:35:07;;;;;;;2.73;0.67;;;;;;;2.75;100.00;95699.66;5032410;28;20041;-78
2022/02/16 03:37:33;;;;;;;2.67;0.70;;;;;;;2.82;100.00;95705.16;5016286;28;20108;-77
2022/02/16 03:40:01;;;;;;;4.00;0.90;;;;;;;2.79;100.00;95702.81;5020242;28;20473;-77
2022/02/16 03:42:29;;;;;;;2.80;0.70;;;;;;;2.73;100.00;95700.72;5037370;28;20036;-78
2022/02/16 03:44:54;;;;;;;1.83;0.70;;;;;;;2.76;100.00;95700.47;5016509;28;20029;-78
2022/02/16 03:47:22;;;;;;;1.57;0.50;;;;;;;2.63;100.00;95699.81;5033171;28;20482;-77
2022/02/16 03:49:48;;;;;;;2.10;0.97;;;;;;;2.52;100.00;95701.50;5033496;28;20527;-78
2022/02/16 03:52:14;;;;;;;2.17;0.90;;;;;;;2.38;100.00;95701.75;5015578;28;20037;-78
2022/02/16 03:54:40;;;;;;;3.23;1.33;;;;;;;2.26;100.00;95698.38;5032785;28;20029;-78
2022/02/16 03:57:06;;;;;;;4.70;1.73;;;;;;;2.20;100.00;95685.06;5032868;28;21012;-77
2022/02/16 03:59:32;;;;;;;4.27;1.33;;;;;;;2.19;100.00;95684.25;5016684;28;21203;-77
2022/02/16 04:02:17;;;;;;;4.90;1.17;;;;;;;2.16;100.00;95679.28;5033262;28;20407;-78
2022/02/16 04:04:43;;;;;;;3.37;0.97;;;;;;;2.07;100.00;95670.47;5034670;28;20471;-77
2022/02/16 04:07:09;;;;;;;4.80;1.27;;;;;;;2.06;100.00;95670.59;5041375;28;20432;-77
2022/02/16 04:09:35;;;;;;;2.77;1.00;;;;;;;2.01;100.00;95665.78;5017645;28;20422;-77
2022/02/16 04:12:01;;;;;;;6.17;1.23;;;;;;;1.99;100.00;95675.44;5034825;28;20044;-78
2022/02/16 04:14:26;;;;;;;2.50;1.07;;;;;;;2.00;100.00;95661.53;5017272;28;20048;-78
2022/02/16 04:16:52;;;;;;;3.53;1.10;;;;;;;2.00;100.00;95664.09;5019082;28;20445;-77
2022/02/16 04:19:18;;;;;;;2.37;1.10;;;;;;;1.97;100.00;95659.16;5020052;28;20029;-76
2022/02/16 04:21:44;;;;;;;4.70;1.30;;;;;;;1.98;100.00;95665.16;5023810;28;20515;-76
2022/02/16 04:24:10;;;;;;;4.43;1.77;;;;;;;1.96;100.00;95664.47;5016717;28;20103;-77
2022/02/16 04:26:36;;;;;;;3.53;1.30;;;;;;;1.96;100.00;95660.13;5032117;28;21008;-77
2022/02/16 04:29:03;;;;;;;5.53;1.30;;;;;;;1.90;100.00;95655.41;5032083;28;20060;-77
2022/02/16 04:31:35;;;;;;;;;;;;;;;1.94;100.00;95654.22;5017366;28;20029;-78
2022/02/16 04:34:01;;;;;;;6.93;1.60;;;;;;;1.89;100.00;95651.19;5016045;28;19924;-77
2022/02/16 04:36:27;;;;;;;2.47;1.00;;;;;;;1.89;100.00;95644.22;5016357;28;20056;-77
2022/02/16 04:38:57;;;;;;;4.47;1.13;;;;;;;1.90;100.00;95642.44;5032374;28;20029;-77
2022/02/16 04:41:24;;;;;;;5.00;1.40;;;;;;;1.91;100.00;95644.09;5015494;28;20440;-78
2022/02/16 04:43:52;;;;;;;2.27;1.13;;;;;;;1.88;100.00;95639.16;5031596;28;20882;-78
2022/02/16 04:46:18;;;;;;;3.77;1.37;;;;;;;1.85;100.00;95632.44;5016674;28;20455;-77
2022/02/16 04:48:46;;;;;;;4.20;1.10;;;;;;;1.88;100.00;95623.59;5035884;28;20452;-78
2022/02/16 04:51:12;;;;;;;3.27;1.30;;;;;;;1.84;100.00;95623.00;5035586;28;20815;-77
2022/02/16 04:53:39;;;;;;;6.50;1.30;;;;;;;1.92;100.00;95627.59;5033451;28;20436;-80
2022/02/16 04:56:07;;;;;;;4.57;0.90;;;;;;;1.93;100.00;95616.28;5017088;28;20476;-78
2022/02/16 04:58:34;;;;;;;3.50;1.20;;;;;;;1.89;100.00;95610.50;5033596;28;20025;-76
2022/02/16 05:01:00;;;;;;;1.80;1.00;;;;;;;1.91;100.00;95615.56;5016857;28;20862;-77
2022/02/16 05:03:30;;;;;;;3.93;1.20;;;;;;;1.95;100.00;95608.41;5017473;28;20025;-77
2022/02/16 05:05:57;;;;;;;3.87;1.40;;;;;;;1.95;100.00;95613.56;5017527;28;20535;-78
2022/02/16 05:08:24;;;;;;;3.43;1.50;;;;;;;2.02;100.00;95609.53;5033902;28;20447;-78
2022/02/16 05:10:50;;;;;;;5.40;1.23;;;;;;;2.06;100.00;95601.38;5018445;28;20444;-78
2022/02/16 05:13:28;;;;;;;4.30;1.40;;;;;;;2.12;100.00;95600.09;5033850;28;20025;-78
2022/02/16 05:15:54;;;;;;;3.07;1.37;;;;;;;2.14;100.00;95598.16;5017676;28;20479;-78
2022/02/16 05:18:20;;;;;;;6.33;2.37;;;;;;;2.17;100.00;95602.28;5016588;28;20482;-78
2022/02/16 05:20:53;;;;;;;;;;;;;;;2.17;100.00;95597.94;5017534;28;20455;-78
2022/02/16 05:23:19;;;;;;;8.23;1.87;;;;;;;2.18;100.00;95606.53;5030945;28;19920;-78
2022/02/16 05:25:50;;;;;;;5.80;1.97;;;;;;;2.18;100.00;95606.53;5032517;28;20056;-77
2022/02/16 05:28:16;;;;;;;6.57;2.40;;;;;;;2.19;100.00;95603.81;5016292;28;20452;-78
2022/02/16 05:30:42;;;;;;;4.60;1.47;;;;;;;2.29;100.00;95590.94;5033558;28;20521;-79
2022/02/16 05:33:10;;;;;;;5.03;1.83;;;;;;;2.20;100.00;95581.31;5017602;28;20509;-77
2022/02/16 05:35:36;;;;;;;4.43;1.10;;;;;;;2.18;100.00;95580.59;5034080;28;20472;-78
2022/02/16 05:38:03;;;;;;;5.07;1.43;;;;;;;2.18;100.00;95580.59;5016575;28;20441;-79
2022/02/16 05:40:31;;;;;;;3.73;1.80;;;;;;;2.21;100.00;95572.56;5033711;28;20558;-79
2022/02/16 05:42:57;;;;;;;4.17;1.10;;;;;;;2.25;100.00;95573.97;5017072;28;20450;-78
2022/02/16 05:45:25;;;;;;;4.33;1.77;;;;;;;2.27;100.00;95567.69;5017088;28;20120;-78
2022/02/16 05:47:53;;;;;;;4.13;1.33;;;;;;;2.27;100.00;95566.88;5016580;28;20448;-79
2022/02/16 05:50:19;;;;;;;7.17;1.63;;;;;;;2.33;100.00;95567.22;5016502;28;20460;-79
2022/02/16 05:52:45;;;;;;;6.10;1.53;;;;;;;2.28;100.00;95564.19;5031500;28;20124;-78
2022/02/16 05:55:11;;;;;;;4.93;1.53;;;;;;;2.31;100.00;95569.13;5032633;28;20140;-77
2022/02/16 05:57:38;;;;;;;5.50;1.50;;;;;;;2.31;100.00;95558.75;5017412;28;20448;-78
2022/02/16 06:00:06;;;;;;;4.23;1.27;;;;;;;2.27;100.00;95556.50;5016547;28;21156;-77
2022/02/16 06:02:38;;;;;;;2.33;1.13;;;;;;;2.28;100.00;95558.13;5032338;28;20495;-78
2022/02/16 06:05:06;;;;;;;3.67;1.17;;;;;;;2.30;100.00;95551.06;5016681;28;20491;-78
2022/02/16 06:07:32;;;;;;;3.27;0.60;;;;;;;2.26;100.00;95540.13;5016116;28;20491;-78
2022/02/16 06:09:58;;;;;;;2.30;0.90;;;;;;;2.32;100.00;95528.44;5016433;28;20455;-79
2022/02/16 06:12:24;;;;;;;3.47;1.33;;;;;;;2.35;100.00;95526.41;5015906;28;20551;-79
2022/02/16 06:14:50;;;;;;;3.03;1.00;;;;;;;2.43;100.00;95520.56;5032486;28;20550;-79
2022/02/16 06:17:16;;;;;;;4.00;0.73;;;;;;;2.46;100.00;95522.91;5015873;28;20472;-80
2022/02/16 06:19:44;;;;;;;1.53;0.80;;;;;;;2.47;100.00;95510.75;5033092;28;20465;-78
2022/02/16 06:22:10;;;;;;;2.37;0.90;;;;;;;2.54;100.00;95512.72;5033736;28;20480;-79
2022/02/16 06:24:37;;;;;;;4.07;1.03;;;;;;;2.59;100.00;95514.94;5034585;28;20053;-81
2022/02/16 06:27:04;;;;;;;4.73;1.20;;;;;;;2.59;100.00;95520.94;5018078;28;20474;-79
2022/02/16 06:29:30;;;;;;;1.27;0.63;;;;;;;2.68;100.00;95508.94;5017717;28;20045;-79
2022/02/16 06:32:25;;;;;;;2.57;0.80;;;;;;;2.74;100.00;95513.63;5029896;28;20042;-79
2022/02/16 06:34:54;;;;;;;3.03;0.87;;;;;;;2.74;100.00;95510.22;5018497;28;21247;-78
2022/02/16 06:37:20;;;;;;;2.77;0.63;;;;;;;2.75;100.00;95506.66;5016452;28;20060;-79
2022/02/16 06:39:46;;;;;;;1.70;0.67;;;;;;;2.79;100.00;95505.47;5016504;28;20083;-79
2022/02/16 06:42:13;;;;;;;1.80;0.63;;;;;;;2.77;100.00;95508.19;5033501;28;20056;-79
2022/02/16 06:44:39;;;;;;;3.07;0.80;;;;;;;2.84;100.00;95509.31;5017911;28;20448;-79
2022/02/16 06:47:05;;;;;;;1.17;0.53;;;;;;;2.87;100.00;95513.44;5017093;28;20030;-79
2022/02/16 06:49:31;;;;;;;2.70;0.70;;;;;;;2.91;100.00;95506.22;5016767;28;20041;-79
2022/02/16 06:52:00;;;;;;;3.43;1.03;;;;;;;2.98;100.00;95500.34;5017114;28;20049;-78
2022/02/16 06:54:26;;;;;;;1.73;1.00;;;;;;;2.99;100.00;95496.81;5017305;28;20454;-78
2022/02/16 06:56:52;;;;;;;2.70;0.60;;;;;;;3.11;100.00;95510.53;5018312;28;20041;-81
2022/02/16 06:59:50;;;;;;;5.00;1.33;;;;;;;3.14;100.00;95514.63;5033616;28;20041;-79
2022/02/16 07:02:17;;;;;;;2.73;0.77;;;;;;;3.17;100.00;95509.19;5034540;28;20060;-79
2022/02/16 07:04:43;;;;;;;3.07;0.90;;;;;;;3.22;100.00;95507.00;5018266;28;20026;-77
2022/02/16 07:07:09;;;;;;;2.20;0.80;;;;;;;3.29;100.00;95513.34;5035783;28;20025;-80
2022/02/16 07:09:34;;;;;;;2.43;0.80;;;;;;;3.33;100.00;95498.31;5035917;28;20042;-81
2022/02/16 07:12:01;;;;;;;1.70;0.70;;;;;;;3.40;100.00;95502.00;5019121;28;20111;-81
2022/02/16 07:14:29;;;;;;;2.13;0.50;;;;;;;3.43;100.00;95512.13;5029210;28;20036;-78
2022/02/16 07:16:57;;;;;;;4.53;0.90;;;;;;;3.45;100.00;95512.81;5026295;28;20026;-80
2022/02/16 07:19:26;;;;;;;4.80;0.83;;;;;;;3.48;100.00;95508.16;5016751;28;20402;-79
2022/02/16 07:22:24;;;;;;;2.37;1.03;;;;;;;3.51;100.00;95512.28;5023551;28;20033;-77
2022/02/16 07:24:50;;;;;;;1.97;1.07;;;;;;;3.56;100.00;95509.31;5017730;28;20041;-79
2022/02/16 07:27:17;;;;;;;1.87;0.97;;;;;;;3.76;100.00;95493.59;5034245;28;20036;-79
2022/02/16 07:29:43;;;;;;;1.93;0.93;;;;;;;3.67;100.00;95485.78;5020698;28;20102;-79
2022/02/16 07:32:09;;;;;;;1.87;0.70;;;;;;;3.71;100.00;95489.75;5020420;28;20025;-81
2022/02/16 07:34:37;;;;;;;3.47;1.03;;;;;;;3.73;100.00;95490.44;5020263;28;20037;-80
2022/02/16 07:37:05;;;;;;;2.80;0.80;;;;;;;3.67;100.00;95493.56;5020832;28;20040;-79
2022/02/16 07:39:32;;;;;;;2.80;0.87;;;;;;;3.72;100.00;95480.97;5015860;28;20064;-80
2022/02/16 07:41:59;;;;;;;2.63;0.90;;;;;;;3.70;100.00;95486.31;5016287;28;20034;-80
2022/02/16 07:44:42;;;;;;;7.03;1.40;;;;;;;3.69;100.00;95478.63;5019749;28;20038;-79
2022/02/16 07:47:18;;;;;;;3.40;0.90;;;;;;;3.76;100.00;95475.38;5016269;28;20033;-79
2022/02/16 07:49:43;;;;;;;3.07;1.07;;;;;;;3.80;100.00;95468.13;5032890;28;20175;-79
2022/02/16 07:52:32;;;;;;;;;;;;;;;3.79;100.00;95463.91;5030189;28;20036;-79
2022/02/16 07:55:10;;;;;;;3.37;0.90;;;;;;;3.83;100.00;95467.84;5031332;28;19921;-79
2022/02/16 07:57:37;;;;;;;3.20;1.37;;;;;;;3.92;100.00;95466.19;5033611;28;20033;-79
2022/02/16 08:00:05;;;;;;;8.63;3.83;;;;;;;3.94;100.00;95478.13;5032834;28;20498;-80
2022/02/16 08:02:40;;;;;;;4.33;1.97;;;;;;;3.98;100.00;95471.69;5018081;28;20056;-80
2022/02/16 08:05:09;;;;;;;3.50;1.27;;;;;;;4.05;100.00;95464.16;5033332;28;20029;-80
2022/02/16 08:07:35;;;;;;;7.00;2.57;;;;;;;4.21;100.00;95456.59;5015170;28;20083;-79
2022/02/16 08:10:00;;;;;;;6.83;2.03;;;;;;;4.18;100.00;95443.84;5015561;28;20038;-79
2022/02/16 08:12:26;;;;;;;4.73;1.00;;;;;;;4.21;100.00;95442.78;5033435;28;20030;-79
2022/02/16 08:14:52;;;;;;;4.60;2.10;;;;;;;4.27;100.00;95446.59;5032498;28;20033;-80
2022/02/16 08:17:20;;;;;;;5.43;2.20;;;;;;;4.30;100.00;95447.16;5030353;28;20036;-79
2022/02/16 08:19:47;;;;;;;4.90;1.70;;;;;;;4.26;100.00;95448.38;5015857;28;20034;-80
2022/02/16 08:22:13;;;;;;;3.77;1.10;;;;;;;4.24;100.00;95437.28;5031788;28;20104;-82
2022/02/16 08:24:39;;;;;;;2.00;0.73;;;;;;;4.22;100.00;95439.19;5014727;28;20042;-80
2022/02/16 08:27:09;;;;;;;2.70;0.67;;;;;;;4.28;100.00;95448.25;5002594;28;20499;-80
2022/02/16 08:29:42;;;;;;;2.63;0.83;;;;;;;4.29;100.00;95432.47;5017192;28;20105;-81
2022/02/16 08:32:20;;;;;;;5.43;1.63;;;;;;;4.31;100.00;95421.94;5014933;28;20038;-81
2022/02/16 08:35:18;;;;;;;4.53;1.20;;;;;;;4.30;100.00;95423.72;5018014;28;20045;-80
2022/02/16 08:37:44;;;;;;;3.23;1.10;;;;;;;4.32;100.00;95426.97;5034520;28;20526;-81
2022/02/16 08:40:12;;;;;;;2.00;0.67;;;;;;;4.39;100.00;95411.63;5017313;28;20108;-81
2022/02/16 08:42:39;;;;;;;4.23;1.27;;;;;;;4.36;100.00;95410.16;5015887;28;20022;-80
2022/02/16 08:45:05;;;;;;;1.30;0.60;;;;;;;4.50;100.00;95403.66;5031844;28;20388;-81
2022/02/16 08:47:31;;;;;;;3.07;0.67;;;;;;;4.55;100.00;95408.44;5016245;28;20569;-80
2022/02/16 08:49:56;;;;;;;1.50;0.50;;;;;;;4.59;100.00;95408.00;5033099;28;20124;-81
2022/02/16 08:52:22;;;;;;;0.93;0.40;;;;;;;4.63;100.00;95400.75;5016833;28;20037;-81
2022/02/16 08:54:48;;;;;;;1.57;0.60;;;;;;;4.67;100.00;95408.13;5016323;28;20038;-81
2022/02/16 08:57:14;;;;;;;3.60;0.53;;;;;;;4.67;100.00;95407.31;5014298;28;20042;-83
2022/02/16 08:59:39;;;;;;;2.27;0.50;;;;;;;4.72;100.00;95399.84;5015275;28;20038;-80
2022/02/16 09:02:07;;;;;;;1.23;0.50;;;;;;;4.69;100.00;95390.56;5031005;28;20037;-81
2022/02/16 09:04:32;;;;;;;1.37;0.50;;;;;;;4.70;100.00;95394.00;5014517;28;20507;-80
2022/02/16 09:09:43;;;;;;;2.70;0.60;;;;;;;4.73;100.00;95391.09;5016588;28;20033;-81
2022/02/16 09:12:10;;;;;;;1.37;0.50;;;;;;;4.75;100.00;95378.75;5015945;28;20450;-80
2022/02/16 09:14:36;;;;;;;1.90;0.70;;;;;;;4.77;100.00;95386.44;5014199;28;20044;-80
2022/02/16 09:17:03;;;;;;;1.17;0.50;;;;;;;4.74;100.00;95384.91;5016976;28;20034;-80
2022/02/16 09:19:34;;;;;;;1.73;0.80;;;;;;;4.83;100.00;95371.03;5030884;28;20037;-80
2022/02/16 09:22:00;;;;;;;2.53;0.87;;;;;;;4.87;100.00;95359.34;5013724;28;20049;-82
2022/02/16 09:24:26;;;;;;;2.67;0.87;;;;;;;4.93;100.00;95357.97;5013967;28;20408;-81
2022/02/16 09:26:55;;;;;;;2.83;0.63;;;;;;;5.00;100.00;95358.16;4996847;28;20029;-81
2022/02/16 09:29:22;;;;;;;1.70;0.50;;;;;;;5.02;100.00;95351.03;5015877;28;20048;-80
2022/02/16 09:31:49;;;;;;;2.27;0.53;;;;;;;5.11;100.00;95350.97;5015867;28;20029;-80
2022/02/16 09:34:15;;;;;;;3.83;0.57;;;;;;;5.13;100.00;95345.59;5013185;28;20034;-81
2022/02/16 09:36:41;;;;;;;1.13;0.53;;;;;;;5.26;100.00;95342.66;5023387;28;20043;-80
2022/02/16 09:39:07;;;;;;;0.30;0.30;;;;;;;5.30;100.00;95350.03;5036318;28;20498;-82
2022/02/16 09:41:32;;;;;;;3.37;0.50;;;;;;;5.30;100.00;95342.22;5035944;28;20124;-81
2022/02/16 09:43:59;;;;;;;0.57;0.40;;;;;;;5.39;100.00;95341.31;5055289;28;20045;-80
2022/02/16 09:46:25;;;;;;;2.27;0.70;;;;;;;5.43;100.00;95326.19;5053169;28;20441;-80
2022/02/16 09:48:52;;;;;;;0.93;0.50;;;;;;;5.37;100.00;95332.84;5054481;28;20040;-80
2022/02/16 09:51:18;;;;;;;1.77;0.73;;;;;;;5.37;100.00;95327.63;5054246;28;20479;-80
2022/02/16 09:53:44;;;;;;;1.10;0.40;;;;;;;5.40;100.00;95327.31;5055432;28;20060;-80
2022/02/16 09:56:10;;;;;;;1.80;0.50;;;;;;;5.35;100.00;95316.50;5055413;28;20029;-80
2022/02/16 09:58:37;;;;;;;1.67;0.60;;;;;;;5.35;100.00;95316.50;5039899;28;20021;-80
2022/02/16 10:01:13;;;;;;;1.57;0.67;;;;;;;5.36;100.00;95318.13;5056940;28;20037;-80
2022/02/16 10:03:57;;;;;;;3.00;1.23;;;;;;;5.40;100.00;95310.88;5041554;28;20029;-80
2022/02/16 10:06:36;;;;;;;0.68;0.45;;;;;;;5.46;100.00;95310.25;5061558;28;20045;-80
2022/02/16 10:09:02;;;;;;;1.60;0.63;;;;;;;5.46;100.00;95310.25;5070299;28;20112;-80
2022/02/16 10:11:28;;;;;;;2.53;0.70;;;;;;;5.55;100.00;95313.75;5056894;28;20033;-80
2022/02/16 10:14:14;;;;;;;1.80;0.70;;;;;;;5.55;100.00;95313.75;5052422;28;20056;-81
2022/02/16 10:16:41;;;;;;;1.07;0.47;;;;;;;5.63;100.00;95313.78;5054795;28;20166;-80
2022/02/16 10:19:06;;;;;;;5.13;1.30;;;;;;;5.62;100.00;95309.56;5052215;28;20086;-79
2022/02/16 10:21:32;;;;;;;0.80;0.40;;;;;;;5.67;100.00;95307.31;5052383;28;20032;-83
2022/02/16 10:23:58;;;;;;;1.37;0.57;;;;;;;5.73;100.00;95317.13;5053009;28;20033;-80
2022/02/16 10:26:50;;;;;;;0.93;0.40;;;;;;;5.74;100.00;95310.97;5037520;28;20037;-80
2022/02/16 10:29:25;;;;;;;1.47;0.50;;;;;;;5.76;100.00;95306.38;5053354;28;20729;-80
2022/02/16 10:31:51;;;;;;;3.40;0.63;;;;;;;5.80;100.00;95306.91;5038228;28;20662;-80
2022/02/16 10:34:19;;;;;;;1.77;0.77;;;;;;;5.84;100.00;95313.47;5056633;28;20060;-79
2022/02/16 10:36:46;;;;;;;3.40;0.60;;;;;;;5.89;100.00;95311.22;5058595;28;20021;-80
2022/02/16 10:39:16;;;;;;;0.60;0.40;;;;;;;5.93;100.00;95314.38;5039376;28;20036;-81
2022/02/16 10:41:45;;;;;;;1.43;0.73;;;;;;;5.95;100.00;95299.38;5054470;28;20144;-81
2022/02/16 10:44:22;;;;;;;1.40;0.60;;;;;;;5.95;100.00;95315.84;5037068;28;20033;-80
2022/02/16 10:47:10;;;;;;;0.40;0.17;;;;;;;5.90;100.00;95310.22;5053765;28;20048;-80
2022/02/16 10:49:43;;;;;;;0.90;0.40;;;;;;;5.97;100.00;95305.25;5036926;28;20655;-80
2022/02/16 10:52:20;;;;;;;1.25;0.50;;;;;;;6.02;100.00;95290.78;5054192;28;20036;-80
2022/02/16 10:55:02;;;;;;;3.50;0.93;;;;;;;6.06;100.00;95296.50;5054162;28;20037;-83
2022/02/16 10:57:28;;;;;;;1.20;0.50;;;;;;;6.06;100.00;95280.84;5057447;28;20422;-80
2022/02/16 10:59:55;;;;;;;0.87;0.40;;;;;;;6.08;100.00;95278.91;5056832;28;20021;-80
2022/02/16 11:02:21;;;;;;;3.03;1.10;;;;;;;6.20;100.00;95266.41;5057777;28;20041;-80
2022/02/16 11:04:48;;;;;;;1.73;0.40;;;;;;;6.24;100.00;95255.50;5043082;28;20040;-80
2022/02/16 11:07:24;;;;;;;1.40;0.40;;;;;;;6.31;100.00;95247.88;5059577;28;20445;-80
2022/02/16 11:09:56;;;;;;;0.60;0.30;;;;;;;6.34;100.00;95253.59;5058940;28;20538;-80
2022/02/16 11:12:22;;;;;;;0.90;0.53;;;;;;;6.42;100.00;95251.97;5056741;28;20029;-80
2022/02/16 11:14:48;;;;;;;1.50;0.50;;;;;;;6.36;100.00;95243.78;5057584;28;20493;-80
2022/02/16 11:17:16;;;;;;;2.60;1.23;;;;;;;6.37;100.00;95248.06;5057661;28;20045;-79
2022/02/16 11:19:42;;;;;;;1.20;0.50;;;;;;;6.26;100.00;95252.72;5057717;28;20128;-80
2022/02/16 11:22:14;;;;;;;2.63;1.10;;;;;;;6.28;100.00;95254.22;5040519;28;20021;-79
2022/02/16 11:24:51;;;;;;;1.37;0.63;;;;;;;6.22;100.00;95254.84;5041404;28;20057;-80
2022/02/16 11:27:37;;;;;;;2.13;0.53;;;;;;;6.09;100.00;95250.03;5058453;28;20449;-80
2022/02/16 11:30:21;;;;;;;1.50;0.33;;;;;;;6.20;100.00;95246.31;5041497;28;20417;-80
2022/02/16 11:32:47;;;;;;;2.38;0.40;;;;;;;6.19;100.00;95229.03;5058788;28;20044;-78
2022/02/16 11:35:17;;;;;;;0.80;0.40;;;;;;;6.37;100.00;95228.94;5055449;28;20041;-80
2022/02/16 11:37:46;;;;;;;1.20;0.40;;;;;;;6.32;100.00;95234.63;5054931;28;20032;-79
2022/02/16 11:40:13;;;;;;;1.83;0.73;;;;;;;6.42;100.00;95238.91;5057405;28;20461;-79
2022/02/16 11:42:48;;;;;;;2.43;0.60;;;;;;;6.44;100.00;95242.19;5057676;28;20033;-80